Date,TemperatureHighF,TemperatureAvgF,TemperatureLowF,DewpointHighF,DewpointAvgF,DewpointLowF,HumidityHigh,HumidityAvg,HumidityLow,PressureMaxIn,PressureMinIn,WindSpeedMaxMPH,WindSpeedAvgMPH,GustSpeedMaxMPH,PrecipitationSumIn
2013-2-1,28.3,24.2,19.0,23.1,10.8,4.5,92,57,38,29.97,29.48,14,6,25,0.00
2013-2-2,27.4,21.1,12.3,15.4,7.7,3.1,74,57,40,30.10,29.90,16,5,23,0.00
2013-2-3,30.1,23.6,16.6,17.1,14.6,12.9,89,69,53,29.92,29.62,4,0,7,0.00
2013-2-4,26.0,21.9,17.3,15.1,9.7,4.6,79,60,42,29.82,29.61,15,4,24,0.00
2013-2-5,30.9,23.3,16.4,21.4,12.7,6.8,85,64,47,29.89,29.78,8,2,11,0.00
2013-2-6,34.5,27.0,21.6,27.6,16.4,3.0,92,67,38,30.19,29.78,10,4,22,0.00
2013-2-7,29.5,22.9,13.6,8.8,5.1,2.6,75,48,33,30.40,30.18,8,1,14,0.00
2013-2-8,27.4,23.6,18.2,24.2,17.0,3.5,93,78,39,30.32,29.63,16,6,29,0.00
2013-2-9,20.0,16.8,12.5,18.3,14.9,10.1,93,92,90,30.15,29.62,16,8,30,0.00
2013-2-10,31.6,18.5,6.0,29.6,16.3,3.5,93,91,88,30.34,30.15,3,1,8,0.00
2013-2-11,32.7,24.9,15.9,32.1,23.6,13.9,98,95,91,30.21,29.52,6,0,9,0.03
2013-2-12,39.2,36.0,32.5,34.2,29.8,23.3,97,79,64,29.77,29.54,11,5,30,0.17
2013-2-13,39.8,34.3,29.8,25.0,23.5,21.6,77,65,49,29.75,29.60,9,2,14,0.00
2013-2-14,42.9,33.1,25.5,24.5,22.3,20.6,82,66,42,29.84,29.60,8,1,13,0.00
2013-2-15,50.1,36.4,25.7,31.9,27.3,22.0,93,71,43,29.84,29.75,10,2,17,0.00
2013-2-16,37.3,32.3,25.4,30.9,22.9,6.0,100,70,43,29.86,29.63,12,3,22,0.05
2013-2-17,25.4,20.4,13.4,7.0,2.9,-0.9,61,46,38,29.68,29.41,19,10,31,0.00
2013-2-18,28.4,19.1,10.7,4.3,-0.4,-3.2,58,43,26,30.03,29.68,12,5,26,0.00
2013-2-19,42.4,29.9,16.6,37.1,21.0,2.3,97,71,44,30.05,29.45,14,2,24,0.07
2013-2-20,36.5,28.7,24.5,35.7,17.8,11.1,97,64,46,29.70,29.45,14,7,28,0.00
2013-2-21,30.2,25.1,21.4,17.4,12.7,8.8,76,59,47,30.17,29.67,14,7,27,0.00
2013-2-22,40.6,31.1,19.4,26.2,19.9,15.8,88,65,45,30.28,30.15,10,2,17,0.00
2013-2-23,34.1,32.9,31.7,32.8,28.7,24.0,95,85,73,30.18,29.79,10,2,16,0.03
2013-2-24,37.8,33.9,32.4,35.4,32.5,31.0,96,94,90,29.79,29.61,6,2,13,0.16
2013-2-25,37.8,33.1,27.5,33.0,30.5,26.3,96,90,78,30.12,29.79,1,0,4,0.09
2013-2-26,40.2,35.4,31.4,34.8,30.6,27.8,97,84,65,30.20,30.02,7,1,12,0.01
2013-2-27,38.6,35.5,32.5,37.0,33.2,29.4,96,91,79,30.02,29.50,8,4,23,0.78
2013-2-28,40.2,34.6,31.4,36.3,32.8,30.2,97,93,84,29.50,29.42,4,0,8,0.02